sensor_id;sensor_type;location;lat;lon;timestamp;P1;durP1;ratioP1;P2;durP2;ratioP2
17228;SDS011;8731;50.364;8.958;2023-02-21T00:01:17;19.17;;;12.40;;
17228;SDS011;8731;50.364;8.958;2023-02-21T00:05:57;17.67;;;11.77;;
17228;SDS011;8731;50.364;8.958;2023-02-21T00:10:36;14.63;;;10.80;;
17228;SDS011;8731;50.364;8.958;2023-02-21T00:15:16;16.13;;;11.40;;
17228;SDS011;8731;50.364;8.958;2023-02-21T00:19:57;13.67;;;10.57;;
17228;SDS011;8731;50.364;8.958;2023-02-21T00:24:37;17.27;;;10.43;;
17228;SDS011;8731;50.364;8.958;2023-02-21T00:29:17;16.27;;;10.90;;
17228;SDS011;8731;50.364;8.958;2023-02-21T00:33:56;19.30;;;11.37;;
17228;SDS011;8731;50.364;8.958;2023-02-21T00:38:38;16.07;;;11.83;;
17228;SDS011;8731;50.364;8.958;2023-02-21T00:43:18;18.80;;;13.87;;
17228;SDS011;8731;50.364;8.958;2023-02-21T00:47:58;19.97;;;13.40;;
17228;SDS011;8731;50.364;8.958;2023-02-21T00:52:37;19.37;;;13.20;;
17228;SDS011;8731;50.364;8.958;2023-02-21T00:57:18;16.23;;;12.37;;
17228;SDS011;8731;50.364;8.958;2023-02-21T01:01:58;20.60;;;13.30;;
17228;SDS011;8731;50.364;8.958;2023-02-21T01:06:38;19.77;;;12.63;;
17228;SDS011;8731;50.364;8.958;2023-02-21T01:11:19;23.50;;;13.63;;
17228;SDS011;8731;50.364;8.958;2023-02-21T01:16:01;20.37;;;13.50;;
17228;SDS011;8731;50.364;8.958;2023-02-21T01:20:41;18.47;;;13.63;;
17228;SDS011;8731;50.364;8.958;2023-02-21T01:25:21;22.60;;;15.57;;
17228;SDS011;8731;50.364;8.958;2023-02-21T01:30:01;21.53;;;15.03;;
17228;SDS011;8731;50.364;8.958;2023-02-21T01:34:42;22.70;;;15.77;;
17228;SDS011;8731;50.364;8.958;2023-02-21T01:39:22;21.83;;;15.13;;
17228;SDS011;8731;50.364;8.958;2023-02-21T01:44:03;22.20;;;16.50;;
17228;SDS011;8731;50.364;8.958;2023-02-21T01:48:47;29.23;;;17.53;;
17228;SDS011;8731;50.364;8.958;2023-02-21T01:53:32;27.17;;;17.77;;
17228;SDS011;8731;50.364;8.958;2023-02-21T01:58:12;24.23;;;17.20;;
17228;SDS011;8731;50.364;8.958;2023-02-21T02:02:54;20.70;;;13.30;;
17228;SDS011;8731;50.364;8.958;2023-02-21T02:07:37;16.53;;;12.67;;
17228;SDS011;8731;50.364;8.958;2023-02-21T02:12:23;20.60;;;14.60;;
17228;SDS011;8731;50.364;8.958;2023-02-21T02:17:12;20.80;;;13.53;;
17228;SDS011;8731;50.364;8.958;2023-02-21T02:21:54;18.07;;;14.00;;
17228;SDS011;8731;50.364;8.958;2023-02-21T02:27:06;23.63;;;16.17;;
17228;SDS011;8731;50.364;8.958;2023-02-21T02:32:03;22.40;;;14.53;;
17228;SDS011;8731;50.364;8.958;2023-02-21T02:36:56;20.73;;;14.87;;
17228;SDS011;8731;50.364;8.958;2023-02-21T02:41:32;21.70;;;14.63;;
17228;SDS011;8731;50.364;8.958;2023-02-21T02:46:08;25.40;;;16.80;;
17228;SDS011;8731;50.364;8.958;2023-02-21T02:50:39;23.23;;;15.10;;
17228;SDS011;8731;50.364;8.958;2023-02-21T02:55:20;25.17;;;16.90;;
17228;SDS011;8731;50.364;8.958;2023-02-21T02:59:52;24.83;;;17.13;;
17228;SDS011;8731;50.364;8.958;2023-02-21T03:04:20;24.40;;;17.90;;
17228;SDS011;8731;50.364;8.958;2023-02-21T03:09:07;21.17;;;16.00;;
17228;SDS011;8731;50.364;8.958;2023-02-21T03:13:36;27.67;;;18.37;;
17228;SDS011;8731;50.364;8.958;2023-02-21T03:18:07;23.47;;;17.20;;
17228;SDS011;8731;50.364;8.958;2023-02-21T03:22:39;26.77;;;18.27;;
17228;SDS011;8731;50.364;8.958;2023-02-21T03:27:06;26.27;;;17.97;;
17228;SDS011;8731;50.364;8.958;2023-02-21T03:31:35;24.23;;;17.93;;
17228;SDS011;8731;50.364;8.958;2023-02-21T03:36:04;23.60;;;16.33;;
17228;SDS011;8731;50.364;8.958;2023-02-21T03:40:30;22.33;;;16.10;;
17228;SDS011;8731;50.364;8.958;2023-02-21T03:44:56;23.37;;;15.73;;
17228;SDS011;8731;50.364;8.958;2023-02-21T03:49:20;21.73;;;16.07;;
17228;SDS011;8731;50.364;8.958;2023-02-21T03:53:43;21.80;;;15.73;;
17228;SDS011;8731;50.364;8.958;2023-02-21T03:58:06;22.23;;;15.87;;
17228;SDS011;8731;50.364;8.958;2023-02-21T04:02:30;24.33;;;17.17;;
17228;SDS011;8731;50.364;8.958;2023-02-21T04:06:54;21.53;;;15.50;;
17228;SDS011;8731;50.364;8.958;2023-02-21T04:11:17;21.60;;;15.20;;
17228;SDS011;8731;50.364;8.958;2023-02-21T04:15:41;23.40;;;15.80;;
17228;SDS011;8731;50.364;8.958;2023-02-21T04:20:04;24.33;;;17.17;;
17228;SDS011;8731;50.364;8.958;2023-02-21T04:24:33;25.80;;;17.67;;
17228;SDS011;8731;50.364;8.958;2023-02-21T04:28:55;30.27;;;19.20;;
17228;SDS011;8731;50.364;8.958;2023-02-21T04:33:17;38.40;;;26.43;;
17228;SDS011;8731;50.364;8.958;2023-02-21T04:37:40;36.80;;;23.43;;
17228;SDS011;8731;50.364;8.958;2023-02-21T04:42:05;34.83;;;20.93;;
17228;SDS011;8731;50.364;8.958;2023-02-21T04:46:28;34.43;;;23.00;;
17228;SDS011;8731;50.364;8.958;2023-02-21T04:50:50;35.90;;;23.20;;
17228;SDS011;8731;50.364;8.958;2023-02-21T04:55:13;29.37;;;20.73;;
17228;SDS011;8731;50.364;8.958;2023-02-21T04:59:37;26.87;;;18.43;;
17228;SDS011;8731;50.364;8.958;2023-02-21T05:04:00;25.00;;;17.13;;
17228;SDS011;8731;50.364;8.958;2023-02-21T05:08:23;25.30;;;17.10;;
17228;SDS011;8731;50.364;8.958;2023-02-21T05:12:45;25.47;;;16.67;;
17228;SDS011;8731;50.364;8.958;2023-02-21T05:17:08;26.93;;;16.80;;
17228;SDS011;8731;50.364;8.958;2023-02-21T05:21:33;25.77;;;17.43;;
17228;SDS011;8731;50.364;8.958;2023-02-21T05:25:57;32.47;;;20.57;;
17228;SDS011;8731;50.364;8.958;2023-02-21T05:30:21;29.23;;;17.53;;
17228;SDS011;8731;50.364;8.958;2023-02-21T05:34:45;26.47;;;16.53;;
17228;SDS011;8731;50.364;8.958;2023-02-21T05:39:08;24.17;;;16.60;;
17228;SDS011;8731;50.364;8.958;2023-02-21T05:43:30;24.13;;;15.63;;
17228;SDS011;8731;50.364;8.958;2023-02-21T05:47:53;25.17;;;15.70;;
17228;SDS011;8731;50.364;8.958;2023-02-21T05:52:20;25.20;;;16.40;;
17228;SDS011;8731;50.364;8.958;2023-02-21T05:56:43;27.80;;;17.33;;
17228;SDS011;8731;50.364;8.958;2023-02-21T06:01:08;29.60;;;18.23;;
17228;SDS011;8731;50.364;8.958;2023-02-21T06:05:31;25.83;;;17.90;;
17228;SDS011;8731;50.364;8.958;2023-02-21T06:09:54;25.53;;;16.67;;
17228;SDS011;8731;50.364;8.958;2023-02-21T06:14:17;21.40;;;14.47;;
17228;SDS011;8731;50.364;8.958;2023-02-21T06:18:40;22.53;;;14.27;;
17228;SDS011;8731;50.364;8.958;2023-02-21T06:23:03;22.03;;;14.90;;
17228;SDS011;8731;50.364;8.958;2023-02-21T06:27:26;22.07;;;14.87;;
17228;SDS011;8731;50.364;8.958;2023-02-21T06:31:49;20.87;;;14.00;;
17228;SDS011;8731;50.364;8.958;2023-02-21T06:36:17;23.23;;;14.90;;
17228;SDS011;8731;50.364;8.958;2023-02-21T06:40:42;22.50;;;13.50;;
17228;SDS011;8731;50.364;8.958;2023-02-21T06:45:07;21.57;;;14.90;;
17228;SDS011;8731;50.364;8.958;2023-02-21T06:49:29;20.77;;;14.83;;
17228;SDS011;8731;50.364;8.958;2023-02-21T06:53:51;21.27;;;14.23;;
17228;SDS011;8731;50.364;8.958;2023-02-21T06:58:14;19.77;;;14.27;;
17228;SDS011;8731;50.364;8.958;2023-02-21T07:02:37;22.57;;;15.40;;
17228;SDS011;8731;50.364;8.958;2023-02-21T07:07:00;21.67;;;13.93;;
17228;SDS011;8731;50.364;8.958;2023-02-21T07:11:22;18.40;;;13.10;;
17228;SDS011;8731;50.364;8.958;2023-02-21T07:15:44;24.17;;;14.57;;
17228;SDS011;8731;50.364;8.958;2023-02-21T07:20:08;19.33;;;12.27;;
17228;SDS011;8731;50.364;8.958;2023-02-21T07:24:31;22.63;;;14.80;;
17228;SDS011;8731;50.364;8.958;2023-02-21T07:28:53;24.27;;;14.63;;
17228;SDS011;8731;50.364;8.958;2023-02-21T07:33:16;19.33;;;13.50;;
17228;SDS011;8731;50.364;8.958;2023-02-21T07:37:39;18.83;;;12.83;;
17228;SDS011;8731;50.364;8.958;2023-02-21T07:42:01;23.30;;;13.57;;
17228;SDS011;8731;50.364;8.958;2023-02-21T07:46:25;20.83;;;13.30;;
17228;SDS011;8731;50.364;8.958;2023-02-21T07:50:48;19.10;;;13.17;;
17228;SDS011;8731;50.364;8.958;2023-02-21T07:55:13;17.77;;;11.63;;
17228;SDS011;8731;50.364;8.958;2023-02-21T07:59:35;19.23;;;13.63;;
17228;SDS011;8731;50.364;8.958;2023-02-21T08:03:57;17.70;;;12.13;;
17228;SDS011;8731;50.364;8.958;2023-02-21T08:08:20;19.97;;;13.97;;
17228;SDS011;8731;50.364;8.958;2023-02-21T08:12:43;19.77;;;13.73;;
17228;SDS011;8731;50.364;8.958;2023-02-21T08:17:06;17.63;;;10.43;;
17228;SDS011;8731;50.364;8.958;2023-02-21T08:21:28;16.43;;;10.07;;
17228;SDS011;8731;50.364;8.958;2023-02-21T08:25:50;13.77;;;9.67;;
17228;SDS011;8731;50.364;8.958;2023-02-21T08:30:15;13.40;;;9.80;;
17228;SDS011;8731;50.364;8.958;2023-02-21T08:34:39;15.50;;;9.40;;
17228;SDS011;8731;50.364;8.958;2023-02-21T08:39:04;16.67;;;10.63;;
17228;SDS011;8731;50.364;8.958;2023-02-21T08:43:28;14.20;;;9.63;;
17228;SDS011;8731;50.364;8.958;2023-02-21T08:47:52;15.13;;;10.30;;
17228;SDS011;8731;50.364;8.958;2023-02-21T08:52:16;12.80;;;9.03;;
17228;SDS011;8731;50.364;8.958;2023-02-21T08:56:40;17.17;;;10.20;;
17228;SDS011;8731;50.364;8.958;2023-02-21T09:01:02;13.53;;;9.77;;
17228;SDS011;8731;50.364;8.958;2023-02-21T09:05:27;14.30;;;10.63;;
17228;SDS011;8731;50.364;8.958;2023-02-21T09:09:51;18.40;;;10.50;;
17228;SDS011;8731;50.364;8.958;2023-02-21T09:14:14;15.17;;;10.47;;
17228;SDS011;8731;50.364;8.958;2023-02-21T09:18:37;15.17;;;10.20;;
17228;SDS011;8731;50.364;8.958;2023-02-21T09:23:00;17.23;;;10.97;;
17228;SDS011;8731;50.364;8.958;2023-02-21T09:27:22;15.73;;;10.67;;
17228;SDS011;8731;50.364;8.958;2023-02-21T09:31:55;14.00;;;9.60;;
17228;SDS011;8731;50.364;8.958;2023-02-21T09:36:18;16.80;;;11.07;;
17228;SDS011;8731;50.364;8.958;2023-02-21T09:40:44;17.47;;;10.77;;
17228;SDS011;8731;50.364;8.958;2023-02-21T09:45:13;17.37;;;10.83;;
17228;SDS011;8731;50.364;8.958;2023-02-21T09:49:39;44.23;;;26.53;;
17228;SDS011;8731;50.364;8.958;2023-02-21T09:54:04;23.73;;;15.43;;
17228;SDS011;8731;50.364;8.958;2023-02-21T09:58:29;20.83;;;12.57;;
17228;SDS011;8731;50.364;8.958;2023-02-21T10:02:54;18.53;;;13.03;;
17228;SDS011;8731;50.364;8.958;2023-02-21T10:07:32;22.83;;;16.23;;
17228;SDS011;8731;50.364;8.958;2023-02-21T10:12:07;26.37;;;16.00;;
17228;SDS011;8731;50.364;8.958;2023-02-21T10:16:43;16.93;;;11.87;;
17228;SDS011;8731;50.364;8.958;2023-02-21T10:21:16;20.17;;;12.73;;
17228;SDS011;8731;50.364;8.958;2023-02-21T10:25:50;19.30;;;11.63;;
17228;SDS011;8731;50.364;8.958;2023-02-21T10:30:25;17.37;;;12.67;;
17228;SDS011;8731;50.364;8.958;2023-02-21T10:34:55;15.70;;;11.60;;
17228;SDS011;8731;50.364;8.958;2023-02-21T10:39:19;19.63;;;13.87;;
17228;SDS011;8731;50.364;8.958;2023-02-21T10:43:51;19.93;;;13.60;;
17228;SDS011;8731;50.364;8.958;2023-02-21T10:48:20;19.37;;;12.83;;
17228;SDS011;8731;50.364;8.958;2023-02-21T10:52:50;16.57;;;13.07;;
17228;SDS011;8731;50.364;8.958;2023-02-21T10:57:13;17.60;;;10.87;;
17228;SDS011;8731;50.364;8.958;2023-02-21T11:01:40;17.13;;;10.27;;
17228;SDS011;8731;50.364;8.958;2023-02-21T11:06:05;15.50;;;10.70;;
17228;SDS011;8731;50.364;8.958;2023-02-21T11:10:32;17.40;;;11.27;;
17228;SDS011;8731;50.364;8.958;2023-02-21T11:15:08;20.10;;;11.37;;
17228;SDS011;8731;50.364;8.958;2023-02-21T11:19:46;16.77;;;11.30;;
17228;SDS011;8731;50.364;8.958;2023-02-21T11:24:11;15.10;;;10.30;;
17228;SDS011;8731;50.364;8.958;2023-02-21T11:28:36;15.97;;;11.07;;
17228;SDS011;8731;50.364;8.958;2023-02-21T11:33:03;17.90;;;12.07;;
17228;SDS011;8731;50.364;8.958;2023-02-21T11:37:27;16.17;;;11.40;;
17228;SDS011;8731;50.364;8.958;2023-02-21T11:41:51;17.30;;;11.33;;
17228;SDS011;8731;50.364;8.958;2023-02-21T11:46:18;16.43;;;10.90;;
17228;SDS011;8731;50.364;8.958;2023-02-21T11:50:52;21.60;;;12.60;;
17228;SDS011;8731;50.364;8.958;2023-02-21T11:55:16;19.53;;;11.20;;
17228;SDS011;8731;50.364;8.958;2023-02-21T11:59:42;16.53;;;11.30;;
17228;SDS011;8731;50.364;8.958;2023-02-21T12:04:24;21.23;;;12.40;;
17228;SDS011;8731;50.364;8.958;2023-02-21T12:09:06;19.30;;;11.63;;
17228;SDS011;8731;50.364;8.958;2023-02-21T12:13:36;15.90;;;10.50;;
17228;SDS011;8731;50.364;8.958;2023-02-21T12:18:18;15.53;;;10.70;;
17228;SDS011;8731;50.364;8.958;2023-02-21T12:23:10;15.80;;;11.00;;
17228;SDS011;8731;50.364;8.958;2023-02-21T12:27:44;13.77;;;10.20;;
17228;SDS011;8731;50.364;8.958;2023-02-21T12:32:26;14.60;;;10.13;;
17228;SDS011;8731;50.364;8.958;2023-02-21T12:37:13;13.70;;;9.60;;
17228;SDS011;8731;50.364;8.958;2023-02-21T12:41:52;13.07;;;9.80;;
17228;SDS011;8731;50.364;8.958;2023-02-21T12:46:31;13.40;;;10.17;;
17228;SDS011;8731;50.364;8.958;2023-02-21T12:51:02;13.27;;;9.90;;
17228;SDS011;8731;50.364;8.958;2023-02-21T12:55:31;11.83;;;9.47;;
17228;SDS011;8731;50.364;8.958;2023-02-21T13:00:02;12.87;;;9.57;;
17228;SDS011;8731;50.364;8.958;2023-02-21T13:04:37;11.37;;;9.50;;
17228;SDS011;8731;50.364;8.958;2023-02-21T13:09:08;10.93;;;9.37;;
17228;SDS011;8731;50.364;8.958;2023-02-21T13:13:41;11.47;;;8.90;;
17228;SDS011;8731;50.364;8.958;2023-02-21T13:18:06;9.57;;;8.57;;
17228;SDS011;8731;50.364;8.958;2023-02-21T13:28:31;9.80;;;8.80;;
17228;SDS011;8731;50.364;8.958;2023-02-21T13:32:56;10.07;;;8.77;;
17228;SDS011;8731;50.364;8.958;2023-02-21T13:37:22;10.20;;;8.80;;
17228;SDS011;8731;50.364;8.958;2023-02-21T13:41:49;9.97;;;8.33;;
17228;SDS011;8731;50.364;8.958;2023-02-21T13:46:53;8.87;;;7.83;;
17228;SDS011;8731;50.364;8.958;2023-02-21T13:51:43;9.97;;;8.17;;
17228;SDS011;8731;50.364;8.958;2023-02-21T13:56:16;9.33;;;8.20;;
17228;SDS011;8731;50.364;8.958;2023-02-21T14:00:47;13.53;;;8.63;;
17228;SDS011;8731;50.364;8.958;2023-02-21T14:05:14;12.07;;;9.10;;
17228;SDS011;8731;50.364;8.958;2023-02-21T14:09:37;11.37;;;8.80;;
17228;SDS011;8731;50.364;8.958;2023-02-21T14:14:02;13.23;;;9.60;;
17228;SDS011;8731;50.364;8.958;2023-02-21T14:18:39;13.13;;;9.23;;
17228;SDS011;8731;50.364;8.958;2023-02-21T14:23:12;10.77;;;9.23;;
17228;SDS011;8731;50.364;8.958;2023-02-21T14:27:37;11.97;;;8.87;;
17228;SDS011;8731;50.364;8.958;2023-02-21T14:36:59;14.07;;;9.57;;
17228;SDS011;8731;50.364;8.958;2023-02-21T14:41:43;11.97;;;9.13;;
17228;SDS011;8731;50.364;8.958;2023-02-21T14:51:50;12.50;;;8.67;;
17228;SDS011;8731;50.364;8.958;2023-02-21T14:56:57;11.17;;;9.13;;
17228;SDS011;8731;50.364;8.958;2023-02-21T15:01:54;12.00;;;8.43;;
17228;SDS011;8731;50.364;8.958;2023-02-21T15:06:22;15.03;;;9.73;;
17228;SDS011;8731;50.364;8.958;2023-02-21T15:10:48;11.83;;;8.90;;
17228;SDS011;8731;50.364;8.958;2023-02-21T15:15:18;18.13;;;8.70;;
17228;SDS011;8731;50.364;8.958;2023-02-21T15:19:45;12.93;;;8.57;;
17228;SDS011;8731;50.364;8.958;2023-02-21T15:24:10;11.17;;;7.90;;
17228;SDS011;8731;50.364;8.958;2023-02-21T15:28:34;14.93;;;10.47;;
17228;SDS011;8731;50.364;8.958;2023-02-21T15:33:01;12.97;;;9.17;;
17228;SDS011;8731;50.364;8.958;2023-02-21T15:37:33;11.87;;;8.33;;
17228;SDS011;8731;50.364;8.958;2023-02-21T15:41:59;12.43;;;8.20;;
17228;SDS011;8731;50.364;8.958;2023-02-21T15:46:28;11.33;;;8.00;;
17228;SDS011;8731;50.364;8.958;2023-02-21T15:51:03;11.70;;;8.10;;
17228;SDS011;8731;50.364;8.958;2023-02-21T15:55:30;9.93;;;8.20;;
17228;SDS011;8731;50.364;8.958;2023-02-21T15:59:56;11.73;;;8.57;;
17228;SDS011;8731;50.364;8.958;2023-02-21T16:04:44;14.47;;;8.67;;
17228;SDS011;8731;50.364;8.958;2023-02-21T16:09:19;14.17;;;8.00;;
17228;SDS011;8731;50.364;8.958;2023-02-21T16:13:49;15.70;;;7.73;;
17228;SDS011;8731;50.364;8.958;2023-02-21T16:18:15;12.27;;;7.17;;
17228;SDS011;8731;50.364;8.958;2023-02-21T16:22:39;13.40;;;8.57;;
17228;SDS011;8731;50.364;8.958;2023-02-21T16:27:08;13.50;;;8.00;;
17228;SDS011;8731;50.364;8.958;2023-02-21T16:31:35;10.60;;;7.67;;
17228;SDS011;8731;50.364;8.958;2023-02-21T16:35:59;8.47;;;7.23;;
17228;SDS011;8731;50.364;8.958;2023-02-21T16:40:28;14.93;;;8.33;;
17228;SDS011;8731;50.364;8.958;2023-02-21T16:44:54;10.97;;;8.07;;
17228;SDS011;8731;50.364;8.958;2023-02-21T16:49:17;20.13;;;8.77;;
17228;SDS011;8731;50.364;8.958;2023-02-21T16:53:39;22.90;;;18.97;;
17228;SDS011;8731;50.364;8.958;2023-02-21T16:58:02;16.07;;;12.60;;
17228;SDS011;8731;50.364;8.958;2023-02-21T17:02:30;19.73;;;16.57;;
17228;SDS011;8731;50.364;8.958;2023-02-21T17:06:53;14.37;;;10.87;;
17228;SDS011;8731;50.364;8.958;2023-02-21T17:11:18;13.03;;;8.67;;
17228;SDS011;8731;50.364;8.958;2023-02-21T17:15:40;10.50;;;7.73;;
17228;SDS011;8731;50.364;8.958;2023-02-21T17:20:04;13.67;;;8.83;;
17228;SDS011;8731;50.364;8.958;2023-02-21T17:24:28;29.20;;;19.60;;
17228;SDS011;8731;50.364;8.958;2023-02-21T17:28:50;16.03;;;11.87;;
17228;SDS011;8731;50.364;8.958;2023-02-21T17:33:13;15.50;;;11.13;;
17228;SDS011;8731;50.364;8.958;2023-02-21T17:37:37;16.57;;;12.27;;
17228;SDS011;8731;50.364;8.958;2023-02-21T17:41:59;13.30;;;9.10;;
17228;SDS011;8731;50.364;8.958;2023-02-21T17:46:21;11.63;;;9.07;;
17228;SDS011;8731;50.364;8.958;2023-02-21T17:50:45;13.53;;;10.47;;
17228;SDS011;8731;50.364;8.958;2023-02-21T17:55:09;10.80;;;8.70;;
17228;SDS011;8731;50.364;8.958;2023-02-21T17:59:38;13.90;;;9.63;;
17228;SDS011;8731;50.364;8.958;2023-02-21T18:04:00;11.93;;;8.60;;
17228;SDS011;8731;50.364;8.958;2023-02-21T18:08:23;13.20;;;7.97;;
17228;SDS011;8731;50.364;8.958;2023-02-21T18:12:46;9.63;;;7.77;;
17228;SDS011;8731;50.364;8.958;2023-02-21T18:17:08;10.47;;;8.37;;
17228;SDS011;8731;50.364;8.958;2023-02-21T18:21:34;10.47;;;7.43;;
17228;SDS011;8731;50.364;8.958;2023-02-21T18:26:00;11.93;;;7.80;;
17228;SDS011;8731;50.364;8.958;2023-02-21T18:30:25;12.07;;;7.77;;
17228;SDS011;8731;50.364;8.958;2023-02-21T18:34:47;11.63;;;7.20;;
17228;SDS011;8731;50.364;8.958;2023-02-21T18:39:10;14.07;;;8.27;;
17228;SDS011;8731;50.364;8.958;2023-02-21T18:43:34;9.73;;;7.20;;
17228;SDS011;8731;50.364;8.958;2023-02-21T18:47:59;10.33;;;7.97;;
17228;SDS011;8731;50.364;8.958;2023-02-21T18:52:22;11.90;;;8.37;;
17228;SDS011;8731;50.364;8.958;2023-02-21T18:56:44;12.27;;;8.93;;
17228;SDS011;8731;50.364;8.958;2023-02-21T19:01:09;12.43;;;8.13;;
17228;SDS011;8731;50.364;8.958;2023-02-21T19:05:36;13.47;;;8.90;;
17228;SDS011;8731;50.364;8.958;2023-02-21T19:09:58;11.87;;;7.73;;
17228;SDS011;8731;50.364;8.958;2023-02-21T19:14:21;10.43;;;7.77;;
17228;SDS011;8731;50.364;8.958;2023-02-21T19:18:43;13.50;;;9.43;;
17228;SDS011;8731;50.364;8.958;2023-02-21T19:23:07;13.33;;;7.83;;
17228;SDS011;8731;50.364;8.958;2023-02-21T19:27:31;12.97;;;8.30;;
17228;SDS011;8731;50.364;8.958;2023-02-21T19:31:54;14.07;;;9.27;;
17228;SDS011;8731;50.364;8.958;2023-02-21T19:36:18;13.10;;;9.73;;
17228;SDS011;8731;50.364;8.958;2023-02-21T19:40:43;14.83;;;10.10;;
17228;SDS011;8731;50.364;8.958;2023-02-21T19:45:06;11.80;;;9.53;;
17228;SDS011;8731;50.364;8.958;2023-02-21T19:49:29;12.27;;;7.70;;
17228;SDS011;8731;50.364;8.958;2023-02-21T19:53:51;10.40;;;7.77;;
17228;SDS011;8731;50.364;8.958;2023-02-21T19:58:16;8.67;;;7.53;;
17228;SDS011;8731;50.364;8.958;2023-02-21T20:02:39;11.13;;;7.67;;
17228;SDS011;8731;50.364;8.958;2023-02-21T20:07:03;14.27;;;8.70;;
17228;SDS011;8731;50.364;8.958;2023-02-21T20:11:25;13.03;;;7.87;;
17228;SDS011;8731;50.364;8.958;2023-02-21T20:15:49;10.30;;;7.93;;
17228;SDS011;8731;50.364;8.958;2023-02-21T20:20:11;11.73;;;7.97;;
17228;SDS011;8731;50.364;8.958;2023-02-21T20:24:35;13.47;;;9.13;;
17228;SDS011;8731;50.364;8.958;2023-02-21T20:28:57;13.80;;;9.60;;
17228;SDS011;8731;50.364;8.958;2023-02-21T20:33:21;14.47;;;10.07;;
17228;SDS011;8731;50.364;8.958;2023-02-21T20:37:43;16.40;;;10.27;;
17228;SDS011;8731;50.364;8.958;2023-02-21T20:42:06;10.80;;;7.27;;
17228;SDS011;8731;50.364;8.958;2023-02-21T20:46:29;17.23;;;12.07;;
17228;SDS011;8731;50.364;8.958;2023-02-21T20:50:55;13.40;;;10.37;;
17228;SDS011;8731;50.364;8.958;2023-02-21T20:55:19;11.33;;;7.77;;
17228;SDS011;8731;50.364;8.958;2023-02-21T20:59:42;11.93;;;8.20;;
17228;SDS011;8731;50.364;8.958;2023-02-21T21:04:05;14.30;;;9.40;;
17228;SDS011;8731;50.364;8.958;2023-02-21T21:08:29;12.93;;;7.87;;
17228;SDS011;8731;50.364;8.958;2023-02-21T21:12:51;13.07;;;9.40;;
17228;SDS011;8731;50.364;8.958;2023-02-21T21:17:14;10.73;;;8.40;;
17228;SDS011;8731;50.364;8.958;2023-02-21T21:21:38;11.73;;;8.70;;
17228;SDS011;8731;50.364;8.958;2023-02-21T21:26:05;9.50;;;7.80;;
17228;SDS011;8731;50.364;8.958;2023-02-21T21:30:28;10.03;;;8.37;;
17228;SDS011;8731;50.364;8.958;2023-02-21T21:34:52;14.30;;;8.50;;
17228;SDS011;8731;50.364;8.958;2023-02-21T21:39:17;10.43;;;8.43;;
17228;SDS011;8731;50.364;8.958;2023-02-21T21:43:44;10.83;;;7.87;;
17228;SDS011;8731;50.364;8.958;2023-02-21T21:48:07;10.67;;;8.20;;
17228;SDS011;8731;50.364;8.958;2023-02-21T21:52:30;13.00;;;8.30;;
17228;SDS011;8731;50.364;8.958;2023-02-21T21:56:53;12.43;;;8.77;;
17228;SDS011;8731;50.364;8.958;2023-02-21T22:01:18;12.00;;;8.47;;
17228;SDS011;8731;50.364;8.958;2023-02-21T22:05:41;9.57;;;7.60;;
17228;SDS011;8731;50.364;8.958;2023-02-21T22:10:03;10.43;;;7.43;;
17228;SDS011;8731;50.364;8.958;2023-02-21T22:14:30;12.77;;;7.93;;
17228;SDS011;8731;50.364;8.958;2023-02-21T22:18:54;11.03;;;7.70;;
17228;SDS011;8731;50.364;8.958;2023-02-21T22:23:16;11.43;;;8.90;;
17228;SDS011;8731;50.364;8.958;2023-02-21T22:27:41;11.83;;;8.20;;
17228;SDS011;8731;50.364;8.958;2023-02-21T22:32:04;10.73;;;8.17;;
17228;SDS011;8731;50.364;8.958;2023-02-21T22:36:30;8.47;;;7.30;;
17228;SDS011;8731;50.364;8.958;2023-02-21T22:40:55;11.80;;;8.53;;
17228;SDS011;8731;50.364;8.958;2023-02-21T22:45:19;10.83;;;8.20;;
17228;SDS011;8731;50.364;8.958;2023-02-21T22:49:43;11.33;;;8.20;;
17228;SDS011;8731;50.364;8.958;2023-02-21T22:54:09;11.00;;;7.90;;
17228;SDS011;8731;50.364;8.958;2023-02-21T22:58:33;10.13;;;8.30;;
17228;SDS011;8731;50.364;8.958;2023-02-21T23:02:55;10.00;;;7.67;;
17228;SDS011;8731;50.364;8.958;2023-02-21T23:07:17;9.33;;;7.53;;
17228;SDS011;8731;50.364;8.958;2023-02-21T23:11:46;12.57;;;7.50;;
17228;SDS011;8731;50.364;8.958;2023-02-21T23:16:16;9.20;;;7.00;;
17228;SDS011;8731;50.364;8.958;2023-02-21T23:20:40;7.93;;;7.00;;
17228;SDS011;8731;50.364;8.958;2023-02-21T23:25:04;9.40;;;7.30;;
17228;SDS011;8731;50.364;8.958;2023-02-21T23:29:40;9.97;;;6.77;;
17228;SDS011;8731;50.364;8.958;2023-02-21T23:34:03;10.53;;;7.93;;
17228;SDS011;8731;50.364;8.958;2023-02-21T23:38:26;10.50;;;7.87;;
17228;SDS011;8731;50.364;8.958;2023-02-21T23:42:49;10.13;;;7.90;;
17228;SDS011;8731;50.364;8.958;2023-02-21T23:47:15;8.53;;;7.07;;
17228;SDS011;8731;50.364;8.958;2023-02-21T23:51:37;8.23;;;6.27;;
17228;SDS011;8731;50.364;8.958;2023-02-21T23:56:01;10.83;;;6.67;;
